Terminal Aerodrome Forecast
Issued by NWS Central Illinois

Current Version | Previous Version | Text Only | Print | Product List | Glossary On
Versions: 1 2 3 4 5 6 7 8 9 10 11 12 13 14 15 16 17 18 19 20 21 22 23 24 25 26 27 28 29 30 31 32 33
000
FTUS43 KILX 222340
TAFPIA
TAF
KPIA 222340Z 2300/2324 19015KT P6SM FEW200
     FM230300 20008KT P6SM FEW120
     FM230600 VRB05KT 3SM BR SCT035
     FM231500 03005KT P6SM BKN040
     FM231900 06009KT P6SM BKN100=

USA.gov is the U.S. government's official web portal to all federal, state and local government web resources and services.